createdAt,value
2023-05-14T00:01:42.755Z,96733.28
2023-05-14T00:04:09.591Z,96736.06
2023-05-14T00:06:36.273Z,96729.09
2023-05-14T00:09:03.045Z,96728.06
2023-05-14T00:11:29.731Z,96724.84
2023-05-14T00:13:56.342Z,96726.75
2023-05-14T00:16:22.986Z,96717.38
2023-05-14T00:18:49.703Z,96720.09
2023-05-14T00:21:16.342Z,96722.47
2023-05-14T00:23:42.961Z,96721.34
2023-05-14T00:26:09.557Z,96715.44
2023-05-14T00:28:36.206Z,96709.16
2023-05-14T00:31:02.831Z,96714.53
2023-05-14T00:33:29.528Z,96710.53
2023-05-14T00:35:56.120Z,96703.19
2023-05-14T00:38:22.786Z,96707.25
2023-05-14T00:40:49.470Z,96703.97
2023-05-14T00:43:16.107Z,96702.66
2023-05-14T00:45:42.697Z,96696.38
2023-05-14T00:50:36.234Z,96679.69
2023-05-14T00:53:02.847Z,96682.38
2023-05-14T00:55:30.318Z,96687.19
2023-05-14T00:57:56.971Z,96676.50
2023-05-14T01:00:23.833Z,96677.53
2023-05-14T01:02:50.661Z,96679.28
2023-05-14T01:05:17.341Z,96675.59
2023-05-14T01:07:57.992Z,96677.81
2023-05-14T01:10:36.256Z,96670.19
2023-05-14T01:13:10.966Z,96672.22
2023-05-14T01:15:37.829Z,96671.44
2023-05-14T01:18:07.035Z,96673.41
2023-05-14T01:20:33.631Z,96665.78
2023-05-14T01:23:00.328Z,96669.13
2023-05-14T01:25:27.006Z,96658.81
2023-05-14T01:28:01.239Z,96659.63
2023-05-14T01:30:38.065Z,96664.00
2023-05-14T01:33:10.803Z,96670.69
2023-05-14T01:35:37.507Z,96677.31
2023-05-14T01:38:05.366Z,96674.28
2023-05-14T01:40:32.016Z,96671.56
2023-05-14T01:42:58.741Z,96674.28
2023-05-14T01:45:25.518Z,96676.66
2023-05-14T01:47:52.245Z,96666.44
2023-05-14T01:50:18.857Z,96674.19
2023-05-14T01:52:45.483Z,96666.19
2023-05-14T01:55:12.098Z,96663.25
2023-05-14T01:57:38.706Z,96665.03
2023-05-14T02:00:06.072Z,96669.63
2023-05-14T02:02:32.736Z,96667.47
2023-05-14T02:04:59.386Z,96659.06
2023-05-14T02:07:26.006Z,96666.03
2023-05-14T02:09:52.681Z,96666.03
2023-05-14T02:12:19.330Z,96665.44
2023-05-14T02:14:45.965Z,96663.91
2023-05-14T02:17:12.571Z,96664.97
2023-05-14T02:19:39.157Z,96663.34
2023-05-14T02:22:05.765Z,96666.03
2023-05-14T02:24:32.412Z,96660.63
2023-05-14T02:26:59.088Z,96664.22
2023-05-14T02:29:25.703Z,96658.06
2023-05-14T02:31:52.405Z,96653.59
2023-05-14T02:34:19.110Z,96669.94
2023-05-14T02:36:45.766Z,96664.03
2023-05-14T02:39:12.361Z,96663.56
2023-05-14T02:41:38.982Z,96663.25
2023-05-14T02:44:05.570Z,96661.59
2023-05-14T02:46:32.360Z,96664.31
2023-05-14T02:48:59.100Z,96654.34
2023-05-14T02:51:25.718Z,96653.25
2023-05-14T02:53:52.301Z,96651.94
2023-05-14T02:56:18.952Z,96650.63
2023-05-14T02:58:45.549Z,96648.69
2023-05-14T03:01:12.285Z,96647.28
2023-05-14T03:03:39.674Z,96641.88
2023-05-14T03:06:06.813Z,96641.31
2023-05-14T03:08:33.517Z,96636.25
2023-05-14T03:11:00.158Z,96639.28
2023-05-14T03:13:26.832Z,96639.84
2023-05-14T03:15:53.493Z,96635.53
2023-05-14T03:18:20.354Z,96638.13
2023-05-14T03:20:46.931Z,96639.69
2023-05-14T03:23:14.783Z,96639.69
2023-05-14T03:25:41.503Z,96645.41
2023-05-14T03:28:08.139Z,96643.13
2023-05-14T03:30:34.892Z,96640.59
2023-05-14T03:33:01.571Z,96649.84
2023-05-14T03:35:28.222Z,96640.66
2023-05-14T03:37:54.809Z,96639.34
2023-05-14T03:40:21.721Z,96645.00
2023-05-14T03:42:48.591Z,96635.34
2023-05-14T03:45:15.230Z,96639.53
2023-05-14T03:47:41.955Z,96637.88
2023-05-14T03:50:08.936Z,96641.09
2023-05-14T03:52:35.591Z,96645.00
2023-05-14T03:55:02.340Z,96639.06
2023-05-14T03:57:29.011Z,96641.16
2023-05-14T03:59:55.601Z,96648.69
2023-05-14T04:02:22.315Z,96639.19
2023-05-14T04:04:49.097Z,96640.50
2023-05-14T04:07:15.768Z,96638.06
2023-05-14T04:09:42.377Z,96644.50
2023-05-14T04:12:09.133Z,96633.47
2023-05-14T04:14:35.760Z,96639.94
2023-05-14T04:17:02.409Z,96634.31
2023-05-14T04:19:29.081Z,96633.00
2023-05-14T04:21:55.734Z,96631.34
2023-05-14T04:24:22.366Z,96637.56
2023-05-14T04:26:48.977Z,96643.19
2023-05-14T04:29:15.581Z,96639.19
2023-05-14T04:31:42.222Z,96638.88
2023-05-14T04:34:08.893Z,96642.16
2023-05-14T04:36:35.493Z,96637.16
2023-05-14T04:39:02.111Z,96641.75
2023-05-14T04:41:28.708Z,96643.78
2023-05-14T04:43:59.831Z,96653.13
2023-05-14T04:46:26.464Z,96649.91
2023-05-14T04:48:53.064Z,96649.03
2023-05-14T04:51:19.646Z,96657.84
2023-05-14T04:53:46.230Z,96653.75
2023-05-14T04:56:12.836Z,96656.78
2023-05-14T04:58:39.432Z,96656.53
2023-05-14T05:01:06.149Z,96655.25
2023-05-14T05:03:32.914Z,96649.84
2023-05-14T05:05:59.557Z,96657.13
2023-05-14T05:08:26.379Z,96653.97
2023-05-14T05:10:53.068Z,96651.63
2023-05-14T05:13:19.719Z,96659.81
2023-05-14T05:15:46.384Z,96660.94
2023-05-14T05:18:13.105Z,96661.19
2023-05-14T05:20:39.746Z,96663.56
2023-05-14T05:23:06.378Z,96660.94
2023-05-14T05:25:32.975Z,96668.47
2023-05-14T05:27:59.565Z,96670.44
2023-05-14T05:30:26.328Z,96661.28
2023-05-14T05:32:53.089Z,96658.72
2023-05-14T05:35:19.845Z,96674.69
2023-05-14T05:37:46.472Z,96670.84
2023-05-14T05:40:13.070Z,96667.47
2023-05-14T05:42:40.241Z,96673.88
2023-05-14T05:45:07.398Z,96673.63
2023-05-14T05:47:34.005Z,96672.41
2023-05-14T05:50:00.780Z,96674.06
2023-05-14T05:52:27.540Z,96665.78
2023-05-14T05:54:54.138Z,96669.13
2023-05-14T05:57:20.824Z,96676.25
2023-05-14T05:59:47.459Z,96674.69
2023-05-14T06:02:14.180Z,96661.59
2023-05-14T06:04:40.845Z,96668.63
2023-05-14T06:07:07.502Z,96678.50
2023-05-14T06:09:34.171Z,96673.09
2023-05-14T06:12:00.770Z,96682.41
2023-05-14T06:14:27.415Z,96672.19
2023-05-14T06:16:54.133Z,96675.75
2023-05-14T06:19:20.883Z,96663.03
2023-05-14T06:21:47.557Z,96671.50
2023-05-14T06:24:14.238Z,96671.50
2023-05-14T06:26:40.851Z,96678.09
2023-05-14T06:29:07.449Z,96669.50
2023-05-14T06:31:34.061Z,96674.63
2023-05-14T06:34:00.734Z,96679.03
2023-05-14T06:36:27.321Z,96672.19
2023-05-14T06:38:53.953Z,96678.47
2023-05-14T06:41:20.568Z,96677.72
2023-05-14T06:43:47.186Z,96682.13
2023-05-14T06:46:13.777Z,96678.75
2023-05-14T06:48:40.445Z,96675.78
2023-05-14T06:51:07.085Z,96681.25
2023-05-14T06:53:33.754Z,96683.97
2023-05-14T06:56:00.407Z,96678.19
2023-05-14T06:58:26.995Z,96683.88
2023-05-14T07:00:53.600Z,96687.28
2023-05-14T07:03:20.272Z,96693.03
2023-05-14T07:05:46.864Z,96692.00
2023-05-14T07:08:13.553Z,96691.19
2023-05-14T07:10:40.143Z,96691.25
2023-05-14T07:13:06.785Z,96689.19
2023-05-14T07:15:33.393Z,96685.53
2023-05-14T07:18:00.180Z,96679.41
2023-05-14T07:20:27.166Z,96680.81
2023-05-14T07:22:53.927Z,96674.41
2023-05-14T07:25:20.526Z,96674.69
2023-05-14T07:27:47.113Z,96676.41
2023-05-14T07:30:13.800Z,96673.97
2023-05-14T07:32:41.023Z,96673.25
2023-05-14T07:35:08.618Z,96665.25
2023-05-14T07:37:35.249Z,96665.31
2023-05-14T07:40:01.891Z,96666.00
2023-05-14T07:42:35.800Z,96669.09
2023-05-14T07:45:04.469Z,96663.50
2023-05-14T07:47:31.190Z,96670.69
2023-05-14T07:49:57.936Z,96665.41
2023-05-14T07:52:24.658Z,96662.69
2023-05-14T07:54:51.330Z,96663.41
2023-05-14T07:57:18.716Z,96664.53
2023-05-14T07:59:45.394Z,96667.84
2023-05-14T08:02:12.053Z,96661.91
2023-05-14T08:04:39.443Z,96661.69
2023-05-14T08:07:06.187Z,96666.03
2023-05-14T08:09:32.812Z,96657.63
2023-05-14T08:11:59.449Z,96665.81
2023-05-14T08:14:26.089Z,96656.28
2023-05-14T08:16:52.812Z,96659.06
2023-05-14T08:19:19.682Z,96660.16
2023-05-14T08:21:46.404Z,96656.34
2023-05-14T08:24:13.077Z,96652.84
2023-05-14T08:26:39.683Z,96647.66
2023-05-14T08:29:06.893Z,96650.66
2023-05-14T08:31:34.577Z,96653.63
2023-05-14T08:34:01.449Z,96653.34
2023-05-14T08:36:28.082Z,96649.56
2023-05-14T08:38:54.740Z,96647.38
2023-05-14T08:41:21.417Z,96646.84
2023-05-14T08:44:00.179Z,96644.97
2023-05-14T08:46:27.199Z,96634.94
2023-05-14T08:49:01.460Z,96630.63
2023-05-14T08:51:28.077Z,96626.84
2023-05-14T08:53:54.995Z,96626.28
2023-05-14T08:56:21.660Z,96635.78
2023-05-14T08:58:48.457Z,96627.91
2023-05-14T09:01:15.312Z,96624.09
2023-05-14T09:03:41.943Z,96628.75
2023-05-14T09:06:08.751Z,96635.50
2023-05-14T09:08:35.649Z,96627.31
2023-05-14T09:11:04.380Z,96622.94
2023-05-14T09:13:31.088Z,96619.69
2023-05-14T09:15:57.872Z,96622.13
2023-05-14T09:18:25.224Z,96628.09
2023-05-14T09:20:52.104Z,96615.91
2023-05-14T09:23:18.773Z,96619.69
2023-05-14T09:25:45.440Z,96615.31
2023-05-14T09:28:12.104Z,96618.84
2023-05-14T09:30:38.733Z,96614.72
2023-05-14T09:33:05.379Z,96616.53
2023-05-14T09:35:32.153Z,96614.13
2023-05-14T09:37:58.776Z,96606.56
2023-05-14T09:40:25.650Z,96614.75
2023-05-14T09:42:52.437Z,96619.91
2023-05-14T09:45:19.109Z,96612.81
2023-05-14T09:47:45.863Z,96609.03
2023-05-14T09:50:12.682Z,96617.72
2023-05-14T09:52:39.351Z,96612.63
2023-05-14T09:55:06.473Z,96618.56
2023-05-14T09:57:33.127Z,96614.19
2023-05-14T09:59:59.758Z,96610.66
2023-05-14T10:02:30.282Z,96615.06
2023-05-14T10:04:57.805Z,96608.28
2023-05-14T10:07:27.378Z,96611.84
2023-05-14T10:09:59.321Z,96604.81
2023-05-14T10:12:26.202Z,96608.31
2023-05-14T10:14:52.803Z,96605.34
2023-05-14T10:17:22.378Z,96604.81
2023-05-14T10:19:53.240Z,96608.63
2023-05-14T10:22:22.901Z,96609.91
2023-05-14T10:24:50.209Z,96602.00
2023-05-14T10:27:16.948Z,96604.31
2023-05-14T10:29:43.600Z,96600.09
2023-05-14T10:32:10.255Z,96597.09
2023-05-14T10:34:43.200Z,96600.31
2023-05-14T10:37:19.417Z,96596.88
2023-05-14T10:39:55.002Z,96606.66
2023-05-14T10:42:34.944Z,96600.97
2023-05-14T10:45:05.616Z,96601.19
2023-05-14T10:47:32.292Z,96601.06
2023-05-14T10:49:59.905Z,96592.34
2023-05-14T10:52:26.594Z,96592.50
2023-05-14T10:54:57.118Z,96583.28
2023-05-14T10:57:28.701Z,96570.66
2023-05-14T10:59:56.395Z,96571.41
2023-05-14T11:02:30.131Z,96583.47
2023-05-14T11:05:04.082Z,96576.84
2023-05-14T11:07:31.998Z,96570.66
2023-05-14T11:10:15.035Z,96579.94
2023-05-14T11:12:43.427Z,96582.34
2023-05-14T11:15:20.669Z,96577.69
2023-05-14T11:17:47.817Z,96574.63
2023-05-14T11:20:14.537Z,96560.63
2023-05-14T11:22:41.683Z,96562.50
2023-05-14T11:25:08.826Z,96562.34
2023-05-14T11:27:39.038Z,96558.03
2023-05-14T11:30:06.272Z,96571.66
2023-05-14T11:32:33.034Z,96565.19
2023-05-14T11:34:59.687Z,96563.50
2023-05-14T11:37:26.315Z,96561.41
2023-05-14T11:39:54.185Z,96564.13
2023-05-14T11:42:21.310Z,96567.41
2023-05-14T11:44:49.295Z,96565.50
2023-05-14T11:47:17.056Z,96556.03
2023-05-14T11:49:43.728Z,96556.34
2023-05-14T11:52:10.493Z,96557.47
2023-05-14T11:54:37.169Z,96559.38
2023-05-14T11:57:08.514Z,96558.88
2023-05-14T11:59:35.153Z,96559.38
2023-05-14T12:02:01.980Z,96555.09
2023-05-14T12:04:28.649Z,96554.53
2023-05-14T12:06:57.337Z,96537.63
2023-05-14T12:09:23.984Z,96544.06
2023-05-14T12:11:50.994Z,96534.44
2023-05-14T12:14:19.971Z,96538.94
2023-05-14T12:16:46.808Z,96538.84
2023-05-14T12:19:17.227Z,96533.50
2023-05-14T12:21:44.251Z,96532.94
2023-05-14T12:24:12.266Z,96536.81
2023-05-14T12:26:38.929Z,96536.13
2023-05-14T12:29:05.580Z,96537.84
2023-05-14T12:31:33.277Z,96529.28
2023-05-14T12:33:59.994Z,96546.44
2023-05-14T12:36:26.665Z,96553.25
2023-05-14T12:38:59.940Z,96555.09
2023-05-14T12:41:26.611Z,96545.72
2023-05-14T12:43:53.261Z,96545.91
2023-05-14T12:46:19.979Z,96540.97
2023-05-14T12:48:46.741Z,96534.59
2023-05-14T12:51:13.410Z,96530.41
2023-05-14T12:53:40.123Z,96527.66
2023-05-14T12:56:06.829Z,96525.34
2023-05-14T12:58:33.571Z,96520.66
2023-05-14T13:01:00.232Z,96525.16
2023-05-14T13:03:26.850Z,96525.06
2023-05-14T13:05:53.758Z,96520.53
2023-05-14T13:08:23.806Z,96512.66
2023-05-14T13:10:53.916Z,96509.44
2023-05-14T13:13:20.616Z,96503.69
2023-05-14T13:15:47.242Z,96495.41
2023-05-14T13:18:14.270Z,96500.50
2023-05-14T13:20:43.102Z,96506.03
2023-05-14T13:23:09.968Z,96497.31
2023-05-14T13:25:36.623Z,96493.69
2023-05-14T13:28:03.289Z,96490.28
2023-05-14T13:30:29.970Z,96486.78
2023-05-14T13:32:56.613Z,96482.56
2023-05-14T13:35:23.361Z,96481.75
2023-05-14T13:37:50.178Z,96490.22
2023-05-14T13:40:16.810Z,96488.22
2023-05-14T13:42:44.537Z,96497.19
2023-05-14T13:45:11.341Z,96495.94
2023-05-14T13:47:38.551Z,96487.91
2023-05-14T13:50:07.926Z,96489.78
2023-05-14T13:52:34.709Z,96488.16
2023-05-14T13:55:01.373Z,96492.19
2023-05-14T13:57:28.066Z,96480.84
2023-05-14T13:59:54.761Z,96485.78
2023-05-14T14:02:21.499Z,96477.66
2023-05-14T14:04:48.241Z,96486.81
2023-05-14T14:07:14.921Z,96478.09
2023-05-14T14:09:41.770Z,96481.56
2023-05-14T14:12:09.094Z,96482.38
2023-05-14T14:14:35.786Z,96476.78
2023-05-14T14:17:02.522Z,96473.25
2023-05-14T14:19:29.872Z,96471.56
2023-05-14T14:21:56.537Z,96462.31
2023-05-14T14:24:23.300Z,96465.72
2023-05-14T14:26:51.783Z,96470.34
2023-05-14T14:29:18.498Z,96465.97
2023-05-14T14:31:45.190Z,96451.38
2023-05-14T14:34:11.970Z,96458.91
2023-05-14T14:36:38.561Z,96456.63
2023-05-14T14:39:05.194Z,96458.22
2023-05-14T14:41:31.838Z,96458.78
2023-05-14T14:43:58.484Z,96457.81
2023-05-14T14:46:25.141Z,96462.44
2023-05-14T14:48:51.889Z,96460.44
2023-05-14T14:51:18.571Z,96453.84
2023-05-14T14:53:45.250Z,96454.00
2023-05-14T14:56:11.929Z,96450.41
2023-05-14T14:58:38.571Z,96458.63
2023-05-14T15:01:05.346Z,96453.41
2023-05-14T15:03:32.176Z,96448.50
2023-05-14T15:05:58.997Z,96447.75
2023-05-14T15:08:26.222Z,96450.69
2023-05-14T15:10:52.944Z,96449.81
2023-05-14T15:13:19.628Z,96454.31
2023-05-14T15:15:46.342Z,96448.50
2023-05-14T15:18:13.010Z,96448.78
2023-05-14T15:20:39.768Z,96446.84
2023-05-14T15:23:06.411Z,96447.88
2023-05-14T15:25:33.060Z,96457.09
2023-05-14T15:27:59.721Z,96462.25
2023-05-14T15:30:26.391Z,96468.78
2023-05-14T15:32:53.083Z,96458.53
2023-05-14T15:35:19.988Z,96463.06
2023-05-14T15:37:46.647Z,96460.84
2023-05-14T15:40:13.287Z,96465.50
2023-05-14T15:42:41.112Z,96459.19
2023-05-14T15:45:08.541Z,96464.13
2023-05-14T15:47:35.958Z,96470.72
2023-05-14T15:50:02.653Z,96465.97
2023-05-14T15:52:29.279Z,96468.84
2023-05-14T15:54:56.001Z,96478.88
2023-05-14T15:57:23.192Z,96481.53
2023-05-14T15:59:49.964Z,96484.00
2023-05-14T16:02:16.574Z,96477.88
2023-05-14T16:04:43.178Z,96488.94
2023-05-14T16:07:09.970Z,96487.63
2023-05-14T16:09:36.869Z,96488.22
2023-05-14T16:12:04.831Z,96487.75
2023-05-14T16:14:34.252Z,96481.84
2023-05-14T16:17:00.945Z,96481.84
2023-05-14T16:19:27.836Z,96469.53
2023-05-14T16:21:54.484Z,96477.84
2023-05-14T16:24:21.128Z,96469.56
2023-05-14T16:26:47.756Z,96469.88
2023-05-14T16:29:14.347Z,96475.56
2023-05-14T16:31:40.972Z,96480.59
2023-05-14T16:34:07.591Z,96473.44
2023-05-14T16:36:34.213Z,96473.78
2023-05-14T16:41:30.300Z,96481.66
2023-05-14T16:43:56.942Z,96498.66
2023-05-14T16:46:23.634Z,96485.44
2023-05-14T16:48:50.292Z,96492.72
2023-05-14T16:51:16.961Z,96501.59
2023-05-14T16:53:43.578Z,96508.19
2023-05-14T16:56:10.211Z,96512.03
2023-05-14T16:58:36.861Z,96514.19
2023-05-14T17:01:03.517Z,96504.97
2023-05-14T17:03:30.128Z,96512.13
2023-05-14T17:05:56.714Z,96525.47
2023-05-14T17:08:23.326Z,96511.13
2023-05-14T17:10:49.948Z,96513.03
2023-05-14T17:13:16.574Z,96505.69
2023-05-14T17:15:43.276Z,96508.66
2023-05-14T17:18:09.963Z,96516.75
2023-05-14T17:20:36.640Z,96517.56
2023-05-14T17:23:03.255Z,96524.63
2023-05-14T17:25:29.900Z,96524.16
2023-05-14T17:27:56.558Z,96528.22
2023-05-14T17:30:23.180Z,96528.41
2023-05-14T17:32:51.103Z,96534.88
2023-05-14T17:35:18.003Z,96529.75
2023-05-14T17:37:44.683Z,96538.41
2023-05-14T17:40:11.757Z,96536.53
2023-05-14T17:42:38.399Z,96542.63
2023-05-14T17:45:05.498Z,96540.81
2023-05-14T17:47:32.239Z,96537.34
2023-05-14T17:49:58.936Z,96532.72
2023-05-14T17:52:25.619Z,96537.03
2023-05-14T17:54:52.282Z,96529.03
2023-05-14T17:57:18.939Z,96533.66
2023-05-14T17:59:45.616Z,96533.94
2023-05-14T18:02:12.260Z,96536.13
2023-05-14T18:04:38.869Z,96538.81
2023-05-14T18:07:05.470Z,96541.00
2023-05-14T18:09:32.141Z,96547.75
2023-05-14T18:11:58.779Z,96551.34
2023-05-14T18:14:25.440Z,96550.19
2023-05-14T18:16:52.151Z,96555.41
2023-05-14T18:19:19.484Z,96556.75
2023-05-14T18:21:46.096Z,96556.28
2023-05-14T18:24:12.728Z,96552.13
2023-05-14T18:26:39.429Z,96561.13
2023-05-14T18:29:06.082Z,96562.47
2023-05-14T18:31:32.764Z,96570.56
2023-05-14T18:33:59.406Z,96571.75
2023-05-14T18:36:26.030Z,96583.59
2023-05-14T18:38:52.696Z,96575.88
2023-05-14T18:41:19.325Z,96585.84
2023-05-14T18:43:45.964Z,96585.09
2023-05-14T18:46:12.657Z,96587.25
2023-05-14T18:48:39.866Z,96577.03
2023-05-14T18:51:06.535Z,96587.53
2023-05-14T18:53:33.144Z,96592.44
2023-05-14T18:55:59.928Z,96586.59
2023-05-14T18:58:26.604Z,96594.63
2023-05-14T19:00:53.295Z,96599.13
2023-05-14T19:03:20.288Z,96600.75
2023-05-14T19:05:46.998Z,96598.59
2023-05-14T19:08:14.068Z,96604.44
2023-05-14T19:10:40.692Z,96602.78
2023-05-14T19:13:07.338Z,96621.75
2023-05-14T19:15:33.976Z,96627.78
2023-05-14T19:18:00.749Z,96635.81
2023-05-14T19:20:27.490Z,96638.03
2023-05-14T19:22:54.092Z,96639.03
2023-05-14T19:25:20.746Z,96654.72
2023-05-14T19:27:47.341Z,96647.72
2023-05-14T19:30:13.982Z,96658.66
2023-05-14T19:32:40.821Z,96662.59
2023-05-14T19:35:07.647Z,96654.88
2023-05-14T19:37:34.276Z,96659.63
2023-05-14T19:40:00.859Z,96660.78
2023-05-14T19:42:27.469Z,96667.91
2023-05-14T19:44:54.059Z,96663.41
2023-05-14T19:47:20.645Z,96659.78
2023-05-14T19:49:48.526Z,96669.34
2023-05-14T19:52:15.193Z,96670.09
2023-05-14T19:54:41.840Z,96674.50
2023-05-14T19:57:09.208Z,96674.78
2023-05-14T19:59:35.842Z,96674.44
2023-05-14T20:02:02.542Z,96672.31
2023-05-14T20:04:29.207Z,96672.41
2023-05-14T20:06:55.855Z,96674.38
2023-05-14T20:09:22.692Z,96676.03
2023-05-14T20:11:49.319Z,96673.25
2023-05-14T20:14:16.002Z,96685.09
2023-05-14T20:16:42.656Z,96679.47
2023-05-14T20:19:09.338Z,96679.09
2023-05-14T20:21:36.193Z,96683.63
2023-05-14T20:24:02.848Z,96680.84
2023-05-14T20:26:29.497Z,96680.56
2023-05-14T20:28:56.169Z,96679.59
2023-05-14T20:31:22.940Z,96678.50
2023-05-14T20:33:49.663Z,96685.00
2023-05-14T20:36:16.328Z,96682.63
2023-05-14T20:38:42.993Z,96683.84
2023-05-14T20:41:09.643Z,96682.22
2023-05-14T20:43:36.353Z,96689.16
2023-05-14T20:46:02.972Z,96682.28
2023-05-14T20:48:29.645Z,96679.06
2023-05-14T20:50:56.283Z,96682.22
2023-05-14T20:53:22.910Z,96685.41
2023-05-14T20:55:49.527Z,96683.13
2023-05-14T20:58:16.166Z,96683.13
2023-05-14T21:00:42.781Z,96682.63
2023-05-14T21:03:09.813Z,96676.06
2023-05-14T21:05:36.696Z,96676.88
2023-05-14T21:08:03.350Z,96679.06
2023-05-14T21:10:29.982Z,96679.91
2023-05-14T21:12:56.691Z,96677.19
2023-05-14T21:15:23.683Z,96673.38
2023-05-14T21:17:50.656Z,96677.03
2023-05-14T21:20:17.310Z,96674.97
2023-05-14T21:22:43.964Z,96677.69
2023-05-14T21:25:10.736Z,96667.63
2023-05-14T21:27:37.402Z,96672.97
2023-05-14T21:30:04.314Z,96668.22
2023-05-14T21:32:31.023Z,96665.47
2023-05-14T21:34:57.616Z,96665.13
2023-05-14T21:37:24.234Z,96673.13
2023-05-14T21:39:50.942Z,96677.97
2023-05-14T21:42:17.538Z,96675.00
2023-05-14T21:44:44.170Z,96672.06
2023-05-14T21:47:10.821Z,96671.59
2023-05-14T21:49:37.413Z,96678.63
2023-05-14T21:52:04.222Z,96672.06
2023-05-14T21:54:30.868Z,96666.69
2023-05-14T21:56:57.560Z,96669.59
2023-05-14T21:59:24.201Z,96658.09
2023-05-14T22:02:06.272Z,96655.03
2023-05-14T22:04:33.883Z,96663.81
2023-05-14T22:07:00.519Z,96659.81
2023-05-14T22:09:27.450Z,96655.47
2023-05-14T22:11:54.118Z,96655.03
2023-05-14T22:14:20.725Z,96653.91
2023-05-14T22:16:47.406Z,96649.81
2023-05-14T22:19:15.869Z,96648.19
2023-05-14T22:21:42.563Z,96646.78
2023-05-14T22:24:09.168Z,96651.13
2023-05-14T22:26:35.816Z,96652.53
2023-05-14T22:29:02.447Z,96641.28
2023-05-14T22:31:29.359Z,96653.28
2023-05-14T22:33:56.099Z,96655.72
2023-05-14T22:36:22.744Z,96652.75
2023-05-14T22:38:49.429Z,96652.66
2023-05-14T22:41:16.073Z,96656.50
2023-05-14T22:43:42.715Z,96662.75
2023-05-14T22:46:09.356Z,96655.19
2023-05-14T22:48:35.982Z,96658.81
2023-05-14T22:51:02.575Z,96664.63
2023-05-14T22:53:29.177Z,96663.31
2023-05-14T22:55:55.809Z,96656.25
2023-05-14T22:58:22.428Z,96665.00
2023-05-14T23:00:49.034Z,96661.09
2023-05-14T23:03:15.685Z,96657.09
2023-05-14T23:05:42.332Z,96656.81
2023-05-14T23:08:08.970Z,96659.44
2023-05-14T23:10:35.665Z,96656.19
2023-05-14T23:13:03.627Z,96651.28
2023-05-14T23:15:30.263Z,96644.56
2023-05-14T23:17:56.953Z,96640.97
2023-05-14T23:20:23.615Z,96640.41
2023-05-14T23:22:50.137Z,96644.75
2023-05-14T23:25:16.749Z,96648.06
2023-05-14T23:27:43.372Z,96642.44
2023-05-14T23:30:10.471Z,96649.09
2023-05-14T23:32:37.070Z,96641.78
2023-05-14T23:35:03.911Z,96647.28
2023-05-14T23:37:30.597Z,96649.56
2023-05-14T23:39:57.199Z,96640.28
2023-05-14T23:42:23.804Z,96639.25
2023-05-14T23:44:50.428Z,96641.16
2023-05-14T23:47:16.974Z,96635.44
2023-05-14T23:49:43.525Z,96632.31
2023-05-14T23:52:10.061Z,96632.97
2023-05-14T23:54:36.694Z,96638.38
2023-05-14T23:57:03.335Z,96628.56
2023-05-14T23:59:29.945Z,96634.22
